createdAt,value
2018-08-24T00:00:22.066Z,81.57
2018-08-24T00:01:22.071Z,81.66
2018-08-24T00:02:22.079Z,81.76
2018-08-24T00:03:22.071Z,81.66
2018-08-24T00:04:22.076Z,81.57
2018-08-24T00:05:22.074Z,82.14
2018-08-24T00:06:22.078Z,82.10
2018-08-24T00:07:22.149Z,82.59
2018-08-24T00:08:22.084Z,82.59
2018-08-24T00:09:22.090Z,83.36
2018-08-24T00:10:22.093Z,83.07
2018-08-24T00:11:22.098Z,83.16
2018-08-24T00:12:22.100Z,82.87
2018-08-24T00:13:22.097Z,82.87
2018-08-24T00:14:22.100Z,82.68
2018-08-24T00:15:22.117Z,82.49
2018-08-24T00:16:22.112Z,83.55
2018-08-24T00:17:22.112Z,83.26
2018-08-24T00:18:22.113Z,83.55
2018-08-24T00:19:22.116Z,83.45
2018-08-24T00:20:22.124Z,83.74
2018-08-24T00:21:22.126Z,83.45
2018-08-24T00:22:22.124Z,83.55
2018-08-24T00:23:22.131Z,83.94
2018-08-24T00:24:22.146Z,83.45
2018-08-24T00:25:22.136Z,84.38
2018-08-24T00:26:22.139Z,84.38
2018-08-24T00:27:22.143Z,84.38
2018-08-24T00:28:22.146Z,84.18
2018-08-24T00:29:22.149Z,84.38
2018-08-24T00:30:22.149Z,84.86
2018-08-24T00:31:22.156Z,85.53
2018-08-24T00:32:22.176Z,86.01
2018-08-24T00:33:22.158Z,85.72
2018-08-24T00:34:22.161Z,86.01
2018-08-24T00:35:22.160Z,86.01
2018-08-24T00:36:22.166Z,85.53
2018-08-24T00:37:22.176Z,85.24
2018-08-24T00:38:22.173Z,85.53
2018-08-24T00:39:22.178Z,85.05
2018-08-24T00:40:22.180Z,84.86
2018-08-24T00:41:22.187Z,84.86
2018-08-24T00:42:22.187Z,85.05
2018-08-24T00:43:22.185Z,84.86
2018-08-24T00:44:22.186Z,84.56
2018-08-24T00:45:22.191Z,84.95
2018-08-24T00:46:22.195Z,84.56
2018-08-24T00:47:22.199Z,84.76
2018-08-24T00:48:22.203Z,84.76
2018-08-24T00:49:22.203Z,84.47
2018-08-24T00:50:22.213Z,84.86
2018-08-24T00:51:22.210Z,85.53
2018-08-24T00:52:22.210Z,86.01
2018-08-24T00:53:22.209Z,86.11
2018-08-24T00:54:22.215Z,85.82
2018-08-24T00:55:22.218Z,86.11
2018-08-24T00:56:22.222Z,86.11
2018-08-24T00:57:22.226Z,86.26
2018-08-24T00:58:22.227Z,85.91
2018-08-24T00:59:22.229Z,86.21
2018-08-24T01:00:22.255Z,86.21
2018-08-24T01:01:22.239Z,85.91
2018-08-24T01:02:22.244Z,85.87
2018-08-24T01:03:22.238Z,85.78
2018-08-24T01:04:22.242Z,86.07
2018-08-24T01:05:22.246Z,85.97
2018-08-24T01:06:22.245Z,86.26
2018-08-24T01:07:22.275Z,85.68
2018-08-24T01:08:22.258Z,86.55
2018-08-24T01:09:22.257Z,86.65
2018-08-24T01:10:22.259Z,87.60
2018-08-24T01:11:22.260Z,88.33
2018-08-24T01:12:22.266Z,89.10
2018-08-24T01:13:22.262Z,88.81
2018-08-24T01:14:22.270Z,88.71
2018-08-24T01:15:22.269Z,88.91
2018-08-24T01:16:22.273Z,88.04
2018-08-24T01:17:22.277Z,88.43
2018-08-24T01:18:22.282Z,89.68
2018-08-24T01:19:22.277Z,88.62
2018-08-24T01:20:22.283Z,88.53
2018-08-24T01:21:22.285Z,89.49
2018-08-24T01:22:22.287Z,89.10
2018-08-24T01:23:22.290Z,88.14
2018-08-24T01:24:22.289Z,89.29
2018-08-24T01:25:22.292Z,89.49
2018-08-24T01:26:22.298Z,89.39
2018-08-24T01:27:22.301Z,89.97
2018-08-24T01:28:22.303Z,89.87
2018-08-24T01:29:22.310Z,90.16
2018-08-24T01:30:22.302Z,90.35
2018-08-24T01:31:22.318Z,90.35
2018-08-24T01:32:22.312Z,90.06
2018-08-24T01:33:22.316Z,90.21
2018-08-24T01:34:22.316Z,90.50
2018-08-24T01:35:22.318Z,90.31
2018-08-24T01:36:22.322Z,91.27
2018-08-24T01:37:22.322Z,91.08
2018-08-24T01:38:22.319Z,91.66
2018-08-24T01:39:22.330Z,91.66
2018-08-24T01:40:22.328Z,92.13
2018-08-24T01:41:22.337Z,90.69
2018-08-24T01:42:22.334Z,90.98
2018-08-24T01:43:22.337Z,91.66
2018-08-24T01:44:22.339Z,91.46
2018-08-24T01:45:22.345Z,91.66
2018-08-24T01:46:22.340Z,92.52
2018-08-24T01:47:22.346Z,92.13
2018-08-24T01:48:22.350Z,92.43
2018-08-24T01:49:22.348Z,91.75
2018-08-24T01:50:22.349Z,92.19
2018-08-24T01:51:22.348Z,92.29
2018-08-24T01:52:22.353Z,92.04
2018-08-24T01:53:22.357Z,92.23
2018-08-24T01:54:22.362Z,92.04
2018-08-24T01:55:22.358Z,92.33
2018-08-24T01:56:22.358Z,92.33
2018-08-24T01:57:22.359Z,92.04
2018-08-24T01:58:22.364Z,91.66
2018-08-24T01:59:22.368Z,91.27
2018-08-24T02:00:22.368Z,91.85
2018-08-24T02:01:22.374Z,91.56
2018-08-24T02:02:22.371Z,91.56
2018-08-24T02:03:22.375Z,91.08
2018-08-24T02:04:22.374Z,91.36
2018-08-24T02:05:22.380Z,91.66
2018-08-24T02:06:22.386Z,91.94
2018-08-24T02:07:22.381Z,91.85
2018-08-24T02:08:22.392Z,91.66
2018-08-24T02:09:22.391Z,91.08
2018-08-24T02:10:22.392Z,91.56
2018-08-24T02:11:22.393Z,91.17
2018-08-24T02:12:22.433Z,91.08
2018-08-24T02:13:22.394Z,90.98
2018-08-24T02:14:22.404Z,91.17
2018-08-24T02:15:22.403Z,91.27
2018-08-24T02:16:22.412Z,91.27
2018-08-24T02:17:22.407Z,90.89
2018-08-24T02:18:22.403Z,91.36
2018-08-24T02:19:22.408Z,91.08
2018-08-24T02:20:22.412Z,91.36
2018-08-24T02:21:22.410Z,91.08
2018-08-24T02:22:22.408Z,90.98
2018-08-24T02:23:22.412Z,91.46
2018-08-24T02:24:22.416Z,92.38
2018-08-24T02:25:22.418Z,92.19
2018-08-24T02:26:22.425Z,92.19
2018-08-24T02:27:22.423Z,92.19
2018-08-24T02:28:22.424Z,92.57
2018-08-24T02:29:22.420Z,92.47
2018-08-24T02:30:22.433Z,92.29
2018-08-24T02:31:22.530Z,93.05
2018-08-24T02:32:22.429Z,93.05
2018-08-24T02:33:22.435Z,92.96
2018-08-24T02:34:22.432Z,93.34
2018-08-24T02:35:22.433Z,92.76
2018-08-24T02:36:22.443Z,93.73
2018-08-24T02:37:22.452Z,94.21
2018-08-24T02:38:22.442Z,93.91
2018-08-24T02:39:22.443Z,93.53
2018-08-24T02:40:22.449Z,93.91
2018-08-24T02:41:22.450Z,93.63
2018-08-24T02:42:22.451Z,93.44
2018-08-24T02:43:22.454Z,94.11
2018-08-24T02:44:22.460Z,93.73
2018-08-24T02:45:22.452Z,94.21
2018-08-24T02:46:22.455Z,93.91
2018-08-24T02:47:22.465Z,94.11
2018-08-24T02:48:22.459Z,94.11
2018-08-24T02:49:22.459Z,93.91
2018-08-24T02:50:22.458Z,93.82
2018-08-24T02:51:22.464Z,94.11
2018-08-24T02:52:22.467Z,93.91
2018-08-24T02:53:22.472Z,93.44
2018-08-24T02:54:22.465Z,93.53
2018-08-24T02:55:22.468Z,93.82
2018-08-24T02:56:22.481Z,93.63
2018-08-24T02:57:22.481Z,93.34
2018-08-24T02:58:22.474Z,93.24
2018-08-24T02:59:22.478Z,93.44
2018-08-24T03:00:22.478Z,92.96
2018-08-24T03:01:22.474Z,92.86
2018-08-24T03:02:22.483Z,92.09
2018-08-24T03:03:22.487Z,93.05
2018-08-24T03:04:22.488Z,92.86
2018-08-24T03:05:22.660Z,92.38
2018-08-24T03:06:22.489Z,93.29
2018-08-24T03:07:22.492Z,92.91
2018-08-24T03:08:22.532Z,92.81
2018-08-24T03:09:22.492Z,92.91
2018-08-24T03:10:22.498Z,92.13
2018-08-24T03:11:22.497Z,92.33
2018-08-24T03:12:22.494Z,92.23
2018-08-24T03:13:22.497Z,92.23
2018-08-24T03:14:22.501Z,92.43
2018-08-24T03:15:22.509Z,92.13
2018-08-24T03:16:22.514Z,91.46
2018-08-24T03:17:22.510Z,92.13
2018-08-24T03:18:22.524Z,92.04
2018-08-24T03:19:22.509Z,92.04
2018-08-24T03:20:22.512Z,91.46
2018-08-24T03:21:22.533Z,91.46
2018-08-24T03:22:22.516Z,91.27
2018-08-24T03:23:22.521Z,90.89
2018-08-24T03:24:22.514Z,91.17
2018-08-24T03:25:22.518Z,91.17
2018-08-24T03:26:22.529Z,91.08
2018-08-24T03:27:22.525Z,91.17
2018-08-24T03:28:22.535Z,91.36
2018-08-24T03:29:22.528Z,90.59
2018-08-24T03:30:22.528Z,90.98
2018-08-24T03:31:22.530Z,91.46
2018-08-24T03:32:22.541Z,90.21
2018-08-24T03:33:22.534Z,90.73
2018-08-24T03:34:22.540Z,90.02
2018-08-24T03:35:22.539Z,90.35
2018-08-24T03:36:22.535Z,90.45
2018-08-24T03:37:22.568Z,90.35
2018-08-24T03:38:22.543Z,90.16
2018-08-24T03:39:22.543Z,90.26
2018-08-24T03:40:22.549Z,89.97
2018-08-24T03:41:22.550Z,90.16
2018-08-24T03:42:22.559Z,90.73
2018-08-24T03:43:22.555Z,90.73
2018-08-24T03:44:22.556Z,90.35
2018-08-24T03:45:22.556Z,90.73
2018-08-24T03:46:22.556Z,90.16
2018-08-24T03:47:22.565Z,90.45
2018-08-24T03:48:22.565Z,90.26
2018-08-24T03:49:22.564Z,90.06
2018-08-24T03:50:22.571Z,90.83
2018-08-24T03:51:22.565Z,90.16
2018-08-24T03:52:22.565Z,90.73
2018-08-24T03:53:22.663Z,90.26
2018-08-24T03:54:22.574Z,90.73
2018-08-24T03:55:22.574Z,90.16
2018-08-24T03:56:22.577Z,90.06
2018-08-24T03:57:22.576Z,90.16
2018-08-24T03:58:22.585Z,90.55
2018-08-24T03:59:22.583Z,90.35
2018-08-24T04:00:22.583Z,90.35
2018-08-24T04:01:22.588Z,90.06
2018-08-24T04:02:22.593Z,90.55
2018-08-24T04:03:22.589Z,90.35
2018-08-24T04:04:22.589Z,90.93
2018-08-24T04:05:22.590Z,90.35
2018-08-24T04:06:22.597Z,91.03
2018-08-24T04:07:22.598Z,90.55
2018-08-24T04:08:22.598Z,90.55
2018-08-24T04:09:22.602Z,90.83
2018-08-24T04:10:22.599Z,90.73
2018-08-24T04:11:22.599Z,91.41
2018-08-24T04:12:22.604Z,91.31
2018-08-24T04:13:22.606Z,91.22
2018-08-24T04:14:22.608Z,90.83
2018-08-24T04:15:22.611Z,90.83
2018-08-24T04:16:22.613Z,90.55
2018-08-24T04:17:22.615Z,90.55
2018-08-24T04:18:22.615Z,90.26
2018-08-24T04:19:22.654Z,90.01
2018-08-24T04:20:22.634Z,89.24
2018-08-24T04:21:22.621Z,89.34
2018-08-24T04:22:22.621Z,89.34
2018-08-24T04:23:22.622Z,88.47
2018-08-24T04:24:22.630Z,88.38
2018-08-24T04:25:22.633Z,88.67
2018-08-24T04:26:22.630Z,87.70
2018-08-24T04:27:22.640Z,87.70
2018-08-24T04:28:22.630Z,87.84
2018-08-24T04:29:22.641Z,87.12
2018-08-24T04:30:22.640Z,86.55
2018-08-24T04:31:22.650Z,86.40
2018-08-24T04:32:22.643Z,86.59
2018-08-24T04:33:22.640Z,86.83
2018-08-24T04:34:22.638Z,86.49
2018-08-24T04:35:22.647Z,86.55
2018-08-24T04:36:22.650Z,86.07
2018-08-24T04:37:22.650Z,86.26
2018-08-24T04:38:22.647Z,86.59
2018-08-24T04:39:22.651Z,86.69
2018-08-24T04:40:22.791Z,86.45
2018-08-24T04:41:22.659Z,87.41
2018-08-24T04:42:22.667Z,86.65
2018-08-24T04:43:22.661Z,87.22
2018-08-24T04:44:22.664Z,86.93
2018-08-24T04:45:22.665Z,87.41
2018-08-24T04:46:22.666Z,87.51
2018-08-24T04:47:22.668Z,87.60
2018-08-24T04:48:22.677Z,87.80
2018-08-24T04:49:22.679Z,88.57
2018-08-24T04:50:22.673Z,88.18
2018-08-24T04:51:22.684Z,88.38
2018-08-24T04:52:22.688Z,88.67
2018-08-24T04:53:22.681Z,88.67
2018-08-24T04:54:22.683Z,89.05
2018-08-24T04:55:22.678Z,89.05
2018-08-24T04:56:22.682Z,88.18
2018-08-24T04:57:22.686Z,89.15
2018-08-24T04:58:22.713Z,88.28
2018-08-24T04:59:22.691Z,88.67
2018-08-24T05:00:22.688Z,88.57
2018-08-24T05:01:22.716Z,88.38
2018-08-24T05:02:22.697Z,88.62
2018-08-24T05:03:22.696Z,88.47
2018-08-24T05:04:22.696Z,88.18
2018-08-24T05:05:22.698Z,88.28
2018-08-24T05:06:22.697Z,87.80
2018-08-24T05:07:22.698Z,88.28
2018-08-24T05:08:22.702Z,88.18
2018-08-24T05:09:22.701Z,87.70
2018-08-24T05:10:22.709Z,87.60
2018-08-24T05:11:22.712Z,87.51
2018-08-24T05:12:22.712Z,87.65
2018-08-24T05:13:22.708Z,87.51
2018-08-24T05:14:22.709Z,87.22
2018-08-24T05:15:22.714Z,87.70
2018-08-24T05:16:22.715Z,87.84
2018-08-24T05:17:22.719Z,87.70
2018-08-24T05:18:22.719Z,87.70
2018-08-24T05:19:22.721Z,87.60
2018-08-24T05:20:22.722Z,87.60
2018-08-24T05:21:22.781Z,87.74
2018-08-24T05:22:22.726Z,87.94
2018-08-24T05:23:22.760Z,87.26
2018-08-24T05:24:22.726Z,86.30
2018-08-24T05:25:22.730Z,87.26
2018-08-24T05:26:22.734Z,86.40
2018-08-24T05:27:22.737Z,87.55
2018-08-24T05:28:22.732Z,87.07
2018-08-24T05:29:22.733Z,87.07
2018-08-24T05:30:22.741Z,87.65
2018-08-24T05:31:22.751Z,87.65
2018-08-24T05:32:22.743Z,87.36
2018-08-24T05:33:22.748Z,87.84
2018-08-24T05:34:22.747Z,87.51
2018-08-24T05:35:22.752Z,88.32
2018-08-24T05:36:22.749Z,87.94
2018-08-24T05:37:22.748Z,87.46
2018-08-24T05:38:22.752Z,88.13
2018-08-24T05:39:22.755Z,87.74
2018-08-24T05:40:22.757Z,87.26
2018-08-24T05:41:22.787Z,87.46
2018-08-24T05:42:22.768Z,87.17
2018-08-24T05:43:22.762Z,87.36
2018-08-24T05:44:22.815Z,86.88
2018-08-24T05:45:22.767Z,86.73
2018-08-24T05:46:22.764Z,85.67
2018-08-24T05:47:22.769Z,85.19
2018-08-24T05:48:22.777Z,85.09
2018-08-24T05:49:22.779Z,84.84
2018-08-24T05:50:22.776Z,83.98
2018-08-24T05:51:22.779Z,83.53
2018-08-24T05:52:22.791Z,82.48
2018-08-24T05:53:22.784Z,81.74
2018-08-24T05:54:22.785Z,82.18
2018-08-24T05:55:22.798Z,83.53
2018-08-24T05:56:22.827Z,83.83
2018-08-24T05:57:22.829Z,83.63
2018-08-24T05:58:22.792Z,82.71
2018-08-24T05:59:22.797Z,81.07
2018-08-24T06:00:22.790Z,80.97
2018-08-24T06:01:22.807Z,81.16
2018-08-24T06:02:22.798Z,81.65
2018-08-24T06:03:22.798Z,81.35
2018-08-24T06:04:22.800Z,80.05
2018-08-24T06:05:22.810Z,79.56
2018-08-24T06:06:22.805Z,79.27
2018-08-24T06:07:22.810Z,79.72
2018-08-24T06:08:22.812Z,80.30
2018-08-24T06:09:22.818Z,80.78
2018-08-24T06:10:22.817Z,80.91
2018-08-24T06:11:22.821Z,80.24
2018-08-24T06:12:22.822Z,80.20
2018-08-24T06:13:22.830Z,80.39
2018-08-24T06:14:22.830Z,80.20
2018-08-24T06:15:22.828Z,79.66
2018-08-24T06:16:22.833Z,78.09
2018-08-24T06:17:22.835Z,76.20
2018-08-24T06:18:22.844Z,75.02
2018-08-24T06:19:22.838Z,72.79
2018-08-24T06:20:22.844Z,72.34
2018-08-24T06:21:22.844Z,73.08
2018-08-24T06:22:22.875Z,72.44
2018-08-24T06:23:22.853Z,73.27
2018-08-24T06:24:22.907Z,73.02
2018-08-24T06:25:22.856Z,72.15
2018-08-24T06:26:22.859Z,71.44
2018-08-24T06:27:22.874Z,70.05
2018-08-24T06:28:22.865Z,70.89
2018-08-24T06:29:22.867Z,71.78
2018-08-24T06:30:22.873Z,73.04
2018-08-24T06:31:22.878Z,73.53
2018-08-24T06:32:22.884Z,73.72
2018-08-24T06:33:22.884Z,73.68
2018-08-24T06:34:22.887Z,73.04
2018-08-24T06:35:22.893Z,71.62
2018-08-24T06:36:22.901Z,70.31
2018-08-24T06:37:22.898Z,69.76
2018-08-24T06:38:22.918Z,68.73
2018-08-24T06:39:22.904Z,69.02
2018-08-24T06:40:22.909Z,68.73
2018-08-24T06:41:22.915Z,66.92
2018-08-24T06:42:22.914Z,67.11
2018-08-24T06:43:22.923Z,65.95
2018-08-24T06:44:22.925Z,65.66
2018-08-24T06:45:22.928Z,67.27
2018-08-24T06:46:22.932Z,67.76
2018-08-24T06:47:23.109Z,67.60
2018-08-24T06:48:22.940Z,70.56
2018-08-24T06:49:22.945Z,70.08
2018-08-24T06:50:22.949Z,69.98
2018-08-24T06:51:22.951Z,71.20
2018-08-24T06:52:22.958Z,71.01
2018-08-24T06:53:23.130Z,73.01
2018-08-24T06:54:22.968Z,72.42
2018-08-24T06:55:22.968Z,72.04
2018-08-24T06:56:22.972Z,72.33
2018-08-24T06:57:22.980Z,71.69
2018-08-24T06:58:22.995Z,69.98
2018-08-24T06:59:22.984Z,68.76
2018-08-24T07:00:22.987Z,68.18
2018-08-24T07:01:22.991Z,69.34
2018-08-24T07:02:22.996Z,67.44
2018-08-24T07:03:23.000Z,66.37
2018-08-24T07:04:23.005Z,65.79
2018-08-24T07:05:23.008Z,65.63
2018-08-24T07:06:23.013Z,65.89
2018-08-24T07:07:23.015Z,67.60
2018-08-24T07:08:23.021Z,68.43
2018-08-24T07:09:23.024Z,69.85
2018-08-24T07:10:23.029Z,70.50
2018-08-24T07:11:23.032Z,71.75
2018-08-24T07:12:23.042Z,73.16
2018-08-24T07:13:23.042Z,73.42
2018-08-24T07:14:23.050Z,74.19
2018-08-24T07:15:23.055Z,73.26
2018-08-24T07:16:23.055Z,70.78
2018-08-24T07:17:23.055Z,70.14
2018-08-24T07:18:23.060Z,70.43
2018-08-24T07:19:23.063Z,70.88
2018-08-24T07:20:23.069Z,70.24
2018-08-24T07:21:23.072Z,69.11
2018-08-24T07:22:23.076Z,67.79
2018-08-24T07:23:23.079Z,67.92
2018-08-24T07:24:23.085Z,66.11
2018-08-24T07:25:23.086Z,65.89
2018-08-24T07:26:23.091Z,66.27
2018-08-24T07:27:23.097Z,65.98
2018-08-24T07:28:23.100Z,67.88
2018-08-24T07:29:23.099Z,67.88
2018-08-24T07:30:23.110Z,66.99
2018-08-24T07:31:23.118Z,66.79
2018-08-24T07:32:23.118Z,65.63
2018-08-24T07:33:23.121Z,65.53
2018-08-24T07:34:23.131Z,65.05
2018-08-24T07:35:23.131Z,66.47
2018-08-24T07:36:23.134Z,68.05
2018-08-24T07:37:23.139Z,69.69
2018-08-24T07:38:23.142Z,70.72
2018-08-24T07:39:23.148Z,70.14
2018-08-24T07:40:23.154Z,70.88
2018-08-24T07:41:23.175Z,71.01
2018-08-24T07:42:23.160Z,69.79
2018-08-24T07:43:23.165Z,68.50
2018-08-24T07:44:23.171Z,65.95
2018-08-24T07:45:23.176Z,65.66
2018-08-24T07:46:23.178Z,66.20
2018-08-24T07:47:23.184Z,65.20
2018-08-24T07:48:23.188Z,63.52
2018-08-24T07:49:23.189Z,62.29
2018-08-24T07:50:23.191Z,60.83
2018-08-24T07:51:23.198Z,61.35
2018-08-24T07:52:23.203Z,64.04
2018-08-24T07:53:23.208Z,64.14
2018-08-24T07:54:23.265Z,65.79
2018-08-24T07:55:23.218Z,65.27
2018-08-24T07:56:23.221Z,65.63
2018-08-24T07:57:23.227Z,66.79
2018-08-24T07:58:23.231Z,66.30
2018-08-24T07:59:23.236Z,65.43
2018-08-24T08:00:23.241Z,65.89
2018-08-24T08:01:23.287Z,67.30
2018-08-24T08:02:23.247Z,67.40
2018-08-24T08:03:23.255Z,68.08
2018-08-24T08:04:23.259Z,68.18
2018-08-24T08:05:23.304Z,67.98
2018-08-24T08:06:23.268Z,68.15
2018-08-24T08:07:23.271Z,68.53
2018-08-24T08:08:23.275Z,69.56
2018-08-24T08:09:23.282Z,70.34
2018-08-24T08:10:23.286Z,70.92
2018-08-24T08:11:23.291Z,71.08
2018-08-24T08:12:23.303Z,71.75
2018-08-24T08:13:23.299Z,72.30
2018-08-24T08:14:23.368Z,72.97
2018-08-24T08:15:23.322Z,73.36
2018-08-24T08:16:23.310Z,73.90
2018-08-24T08:17:23.316Z,74.00
2018-08-24T08:18:23.392Z,74.00
2018-08-24T08:19:23.319Z,74.29
2018-08-24T08:20:23.330Z,74.87
2018-08-24T08:21:23.330Z,74.77
2018-08-24T08:22:23.343Z,75.06
2018-08-24T08:23:23.346Z,75.74
2018-08-24T08:24:23.343Z,75.64
2018-08-24T08:25:23.348Z,75.93
2018-08-24T08:26:23.349Z,75.45
2018-08-24T08:27:23.354Z,74.58
2018-08-24T08:28:23.354Z,74.77
2018-08-24T08:29:23.359Z,73.94
2018-08-24T08:30:23.361Z,74.48
2018-08-24T08:31:23.368Z,73.84
2018-08-24T08:32:23.650Z,74.52
2018-08-24T08:33:23.375Z,73.74
2018-08-24T08:34:23.375Z,73.26
2018-08-24T08:35:23.483Z,71.91
2018-08-24T08:36:23.385Z,72.30
2018-08-24T08:37:23.523Z,72.10
2018-08-24T08:38:23.391Z,71.52
2018-08-24T08:39:23.393Z,71.81
2018-08-24T08:40:23.397Z,70.78
2018-08-24T08:41:23.403Z,70.20
2018-08-24T08:42:23.405Z,69.37
2018-08-24T08:43:23.407Z,68.69
2018-08-24T08:44:23.412Z,67.53
2018-08-24T08:45:23.430Z,68.05
2018-08-24T08:46:23.447Z,67.66
2018-08-24T08:47:23.419Z,67.53
2018-08-24T08:48:23.427Z,66.78
2018-08-24T08:49:23.428Z,66.88
2018-08-24T08:50:23.487Z,66.75
2018-08-24T08:51:23.439Z,67.43
2018-08-24T08:52:23.443Z,67.82
2018-08-24T08:53:23.464Z,67.24
2018-08-24T08:54:23.554Z,67.14
2018-08-24T08:55:23.453Z,67.24
2018-08-24T08:56:23.456Z,67.33
2018-08-24T08:57:23.459Z,67.43
2018-08-24T08:58:23.469Z,66.30
2018-08-24T08:59:23.467Z,66.02
2018-08-24T09:00:23.470Z,65.79
2018-08-24T09:01:23.475Z,65.40
2018-08-24T09:02:23.481Z,65.30
2018-08-24T09:03:23.482Z,65.30
2018-08-24T09:04:23.485Z,65.40
2018-08-24T09:05:23.491Z,65.01
2018-08-24T09:06:23.536Z,65.24
2018-08-24T09:07:23.496Z,65.05
2018-08-24T09:08:23.502Z,64.85
2018-08-24T09:09:23.501Z,65.43
2018-08-24T09:10:23.507Z,65.66
2018-08-24T09:11:23.512Z,64.11
2018-08-24T09:12:23.518Z,64.69
2018-08-24T09:13:23.519Z,65.37
2018-08-24T09:14:23.557Z,65.37
2018-08-24T09:15:23.526Z,65.37
2018-08-24T09:16:23.532Z,64.30
2018-08-24T09:17:23.537Z,64.30
2018-08-24T09:18:23.579Z,64.17
2018-08-24T09:19:23.542Z,63.89
2018-08-24T09:20:23.547Z,63.49
2018-08-24T09:21:23.548Z,64.01
2018-08-24T09:22:23.553Z,63.31
2018-08-24T09:23:23.559Z,63.98
2018-08-24T09:24:23.566Z,63.89
2018-08-24T09:25:23.704Z,64.27
2018-08-24T09:26:23.569Z,64.27
2018-08-24T09:27:23.618Z,63.79
2018-08-24T09:28:23.577Z,63.24
2018-08-24T09:29:23.582Z,63.53
2018-08-24T09:30:23.588Z,62.10
2018-08-24T09:31:23.592Z,62.20
2018-08-24T09:32:23.756Z,61.14
2018-08-24T09:33:23.597Z,60.75
2018-08-24T09:34:23.601Z,61.33
2018-08-24T09:35:23.622Z,60.85
2018-08-24T09:36:23.708Z,60.07
2018-08-24T09:37:23.618Z,59.88
2018-08-24T09:38:23.618Z,60.91
2018-08-24T09:39:23.621Z,61.01
2018-08-24T09:40:23.624Z,60.52
2018-08-24T09:41:23.632Z,62.04
2018-08-24T09:42:23.633Z,62.82
2018-08-24T09:43:23.645Z,63.98
2018-08-24T09:44:23.642Z,63.98
2018-08-24T09:45:23.645Z,62.82
2018-08-24T09:46:23.651Z,62.63
2018-08-24T09:47:23.656Z,62.82
2018-08-24T09:48:23.669Z,63.31
2018-08-24T09:49:23.716Z,63.59
2018-08-24T09:50:23.668Z,63.95
2018-08-24T09:51:23.676Z,64.14
2018-08-24T09:52:23.675Z,64.53
2018-08-24T09:53:23.679Z,64.82
2018-08-24T09:54:23.684Z,65.30
2018-08-24T09:55:23.691Z,65.40
2018-08-24T09:56:23.695Z,65.11
2018-08-24T09:57:23.695Z,64.62
2018-08-24T09:58:23.699Z,65.11
2018-08-24T09:59:23.708Z,64.72
2018-08-24T10:00:23.708Z,64.62
2018-08-24T10:01:23.710Z,64.62
2018-08-24T10:02:23.716Z,64.72
2018-08-24T10:03:23.720Z,65.30
2018-08-24T10:04:23.724Z,64.34
2018-08-24T10:05:23.727Z,64.53
2018-08-24T10:06:23.828Z,64.82
2018-08-24T10:07:23.735Z,64.62
2018-08-24T10:08:23.737Z,65.14
2018-08-24T10:09:23.744Z,64.85
2018-08-24T10:10:23.747Z,64.27
2018-08-24T10:11:23.753Z,63.89
2018-08-24T10:12:23.756Z,64.47
2018-08-24T10:13:23.836Z,63.49
2018-08-24T10:14:23.763Z,63.49
2018-08-24T10:15:23.767Z,64.14
2018-08-24T10:16:23.872Z,65.20
2018-08-24T10:17:23.774Z,65.30
2018-08-24T10:18:23.782Z,65.17
2018-08-24T10:19:23.780Z,65.37
2018-08-24T10:20:23.785Z,65.75
2018-08-24T10:21:23.789Z,65.59
2018-08-24T10:22:23.794Z,65.17
2018-08-24T10:23:23.798Z,65.11
2018-08-24T10:24:23.804Z,64.82
2018-08-24T10:25:23.805Z,64.21
2018-08-24T10:26:23.811Z,62.37
2018-08-24T10:27:23.816Z,62.01
2018-08-24T10:28:23.817Z,61.92
2018-08-24T10:29:23.968Z,61.33
2018-08-24T10:30:23.828Z,61.63
2018-08-24T10:31:23.828Z,60.75
2018-08-24T10:32:23.826Z,61.43
2018-08-24T10:33:23.838Z,60.37
2018-08-24T10:34:23.852Z,60.57
2018-08-24T10:35:23.844Z,60.95
2018-08-24T10:36:23.981Z,60.05
2018-08-24T10:37:23.851Z,58.70
2018-08-24T10:38:23.856Z,58.89
2018-08-24T10:39:23.881Z,58.12
2018-08-24T10:40:23.863Z,58.02
2018-08-24T10:41:23.912Z,58.40
2018-08-24T10:42:23.873Z,58.89
2018-08-24T10:43:23.869Z,58.80
2018-08-24T10:44:23.881Z,58.98
2018-08-24T10:45:23.879Z,59.18
2018-08-24T10:46:23.885Z,60.05
2018-08-24T10:47:23.895Z,59.47
2018-08-24T10:48:23.894Z,59.59
2018-08-24T10:49:23.956Z,59.98
2018-08-24T10:50:23.912Z,58.63
2018-08-24T10:51:23.904Z,59.01
2018-08-24T10:52:23.906Z,57.76
2018-08-24T10:53:23.911Z,57.95
2018-08-24T10:54:23.922Z,57.56
2018-08-24T10:55:23.937Z,57.28
2018-08-24T10:56:23.923Z,57.82
2018-08-24T10:57:23.948Z,58.18
2018-08-24T10:58:23.931Z,58.28
2018-08-24T10:59:23.933Z,57.51
2018-08-24T11:00:23.939Z,56.73
2018-08-24T11:01:23.949Z,56.76
2018-08-24T11:02:23.943Z,56.37
2018-08-24T11:03:23.968Z,55.89
2018-08-24T11:04:23.957Z,55.89
2018-08-24T11:05:24.013Z,55.79
2018-08-24T11:06:23.960Z,54.44
2018-08-24T11:07:24.062Z,54.80
2018-08-24T11:08:23.968Z,55.74
2018-08-24T11:09:23.970Z,56.51
2018-08-24T11:10:23.982Z,57.38
2018-08-24T11:11:23.975Z,58.45
2018-08-24T11:12:23.981Z,59.86
2018-08-24T11:13:23.984Z,60.93
2018-08-24T11:14:23.990Z,60.54
2018-08-24T11:15:24.036Z,61.31
2018-08-24T11:16:38.860Z,61.70
2018-08-24T11:17:24.000Z,62.05
2018-08-24T11:18:24.003Z,62.73
2018-08-24T11:19:24.008Z,63.40
2018-08-24T11:20:24.011Z,63.31
2018-08-24T11:21:24.012Z,63.15
2018-08-24T11:22:24.020Z,63.24
2018-08-24T11:23:24.020Z,63.70
2018-08-24T11:24:24.028Z,62.82
2018-08-24T11:25:24.045Z,63.50
2018-08-24T11:26:24.029Z,62.63
2018-08-24T11:27:24.034Z,62.82
2018-08-24T11:28:24.039Z,61.57
2018-08-24T11:29:24.094Z,61.96
2018-08-24T11:30:24.040Z,60.71
2018-08-24T11:31:24.086Z,60.61
2018-08-24T11:32:24.049Z,61.19
2018-08-24T11:33:24.061Z,60.77
2018-08-24T11:34:24.060Z,61.44
2018-08-24T11:35:24.060Z,62.41
2018-08-24T11:36:24.115Z,62.22
2018-08-24T11:37:24.063Z,61.44
2018-08-24T11:38:24.065Z,62.22
2018-08-24T11:39:24.076Z,62.79
2018-08-24T11:40:24.074Z,62.51
2018-08-24T11:41:24.351Z,62.12
2018-08-24T11:42:24.080Z,62.48
2018-08-24T11:43:24.249Z,62.48
2018-08-24T11:44:24.087Z,63.34
2018-08-24T11:45:24.107Z,63.44
2018-08-24T11:46:24.091Z,64.59
2018-08-24T11:47:24.273Z,65.37
2018-08-24T11:48:24.098Z,65.27
2018-08-24T11:49:24.099Z,65.72
2018-08-24T11:50:24.103Z,64.79
2018-08-24T11:51:24.104Z,66.43
2018-08-24T11:52:24.108Z,66.14
2018-08-24T11:53:24.107Z,66.82
2018-08-24T11:54:24.124Z,66.43
2018-08-24T11:55:24.117Z,67.10
2018-08-24T11:56:24.224Z,66.82
2018-08-24T11:57:24.123Z,67.40
2018-08-24T11:58:24.124Z,68.19
2018-08-24T11:59:24.128Z,66.08
2018-08-24T12:00:24.133Z,65.78
2018-08-24T12:01:24.256Z,65.82
2018-08-24T12:02:24.166Z,64.95
2018-08-24T12:03:24.151Z,64.37
2018-08-24T12:04:24.140Z,64.37
2018-08-24T12:05:24.251Z,65.14
2018-08-24T12:06:24.146Z,64.95
2018-08-24T12:07:24.148Z,65.47
2018-08-24T12:08:24.312Z,64.59
2018-08-24T12:09:24.153Z,63.92
2018-08-24T12:10:24.158Z,63.34
2018-08-24T12:11:24.160Z,61.99
2018-08-24T12:12:24.178Z,62.28
2018-08-24T12:13:24.498Z,61.34
2018-08-24T12:14:24.392Z,61.63
2018-08-24T12:15:24.293Z,62.40
2018-08-24T12:16:24.845Z,61.44
2018-08-24T12:17:24.473Z,60.09
2018-08-24T12:18:24.677Z,59.80
2018-08-24T12:19:24.267Z,58.06
2018-08-24T12:20:24.193Z,58.06
2018-08-24T12:21:24.529Z,57.87
2018-08-24T12:22:24.281Z,57.84
2018-08-24T12:23:25.165Z,58.73
2018-08-24T12:24:24.926Z,57.74
2018-08-24T12:25:24.344Z,56.58
2018-08-24T12:26:24.514Z,56.10
2018-08-24T12:28:24.548Z,57.64
2018-08-24T12:29:24.415Z,57.84
2018-08-24T12:30:25.644Z,56.96
2018-08-24T12:31:26.059Z,57.93
2018-08-24T12:32:24.958Z,56.77
2018-08-24T12:34:24.452Z,58.29
2018-08-24T12:35:24.375Z,58.68
2018-08-24T12:36:24.426Z,57.90
2018-08-24T12:37:24.264Z,58.22
2018-08-24T12:38:24.262Z,57.84
2018-08-24T12:39:24.467Z,57.93
2018-08-24T12:40:24.281Z,57.32
2018-08-24T12:41:24.331Z,58.19
2018-08-24T12:42:24.311Z,57.81
2018-08-24T12:43:24.311Z,58.10
2018-08-24T12:44:24.314Z,57.90
2018-08-24T12:45:24.312Z,58.87
2018-08-24T12:46:24.289Z,59.83
2018-08-24T12:47:24.315Z,59.55
2018-08-24T12:48:24.324Z,58.97
2018-08-24T12:49:24.435Z,58.97
2018-08-24T12:50:24.361Z,58.48
2018-08-24T12:51:24.744Z,58.87
2018-08-24T12:52:24.343Z,59.45
2018-08-24T12:53:24.511Z,59.16
2018-08-24T12:54:24.321Z,58.68